Time;durP1;ratioP1;P1;durP2;ratioP2;P2;SDS_P1;SDS_P2;PMS_P1;PMS_P2;Temp;Humidity;BMP_temperature;BMP_pressure;BME280_temperature;BME280_humidity;BME280_pressure;Samples;Min_cycle;Max_cycle;Signal;HPM_P1;HPM_P2
2023/09/02 00:00:13;;;;;;;;;;;;;;;21.41;94.26;99999.34;5111916;28;1960;-67
2023/09/02 00:02:40;;;;;;;;;;;;;;;21.40;94.37;99994.97;5112124;28;934;-65
2023/09/02 00:05:07;;;;;;;;;;;;;;;21.39;94.38;100004.63;5112121;28;870;-66
2023/09/02 00:07:35;;;;;;;;;;;;;;;21.39;94.53;100003.88;5112020;28;831;-66
2023/09/02 00:10:02;;;;;;;;;;;;;;;21.40;94.03;100003.41;5112033;28;879;-66
2023/09/02 00:12:29;;;;;;;;;;;;;;;21.40;93.47;100006.22;5112163;28;842;-66
2023/09/02 00:14:56;;;;;;;;;;;;;;;21.40;92.94;100003.41;5112150;28;910;-66
2023/09/02 00:17:23;;;;;;;;;;;;;;;21.43;91.99;100007.31;5110728;28;1290;-66
2023/09/02 00:19:51;;;;;;;;;;;;;;;21.43;91.57;100006.56;5112167;28;1918;-66
2023/09/02 00:22:18;;;;;;;;;;;;;;;21.43;91.02;100004.50;5110610;28;1504;-66
2023/09/02 00:24:45;;;;;;;;;;;;;;;21.43;90.67;100004.50;5112196;28;827;-66
2023/09/02 00:27:12;;;;;;;;;;;;;;;21.32;91.76;100004.97;5112016;28;847;-66
2023/09/02 00:29:39;;;;;;;;;;;;;;;21.18;93.05;100000.00;5111854;28;890;-66
2023/09/02 00:32:06;;;;;;;;;;;;;;;21.00;95.02;100007.22;5111775;28;1372;-67
2023/09/02 00:34:34;;;;;;;;;;;;;;;20.91;95.03;99995.19;5115744;28;842;-66
2023/09/02 00:37:01;;;;;;;;;;;;;;;21.03;93.24;99999.09;5115944;28;843;-65
2023/09/02 00:39:29;;;;;;;;;;;;;;;21.11;91.58;99992.69;5115624;28;1889;-66
2023/09/02 00:41:57;;;;;;;;;;;;;;;21.16;90.53;100002.50;5115842;28;866;-65
2023/09/02 00:44:25;;;;;;;;;;;;;;;21.12;90.38;100001.88;5115702;28;875;-65
2023/09/02 00:46:52;;;;;;;;;;;;;;;21.05;90.86;100002.22;5115599;28;890;-66
2023/09/02 00:49:19;;;;;;;;;;;;;;;21.04;90.69;100000.63;5114333;28;1281;-65
2023/09/02 00:51:47;;;;;;;;;;;;;;;20.99;91.17;99999.25;5115537;28;842;-66
2023/09/02 01:24:52;;;;;;;;;;;;;;;20.77;94.46;99999.41;5776005;22;1977;-61
2023/09/02 01:27:22;;;;;;;;;;;;;;;20.82;94.32;100010.03;4994628;28;835;-60
2023/09/02 01:29:55;;;;;;;;;;;;;;;20.81;94.68;100005.66;4995350;28;879;-60
2023/09/02 01:32:24;;;;;;;;;;;;;;;20.78;94.89;100004.59;4994873;28;943;-60
2023/09/02 01:34:51;;;;;;;;;;;;;;;20.75;95.09;100008.31;4994866;28;913;-60
2023/09/02 01:37:20;;;;;;;;;;;;;;;20.70;95.76;100003.31;4994639;28;936;-60
2023/09/02 01:39:48;;;;;;;;;;;;;;;20.67;95.91;100007.06;4994634;28;1914;-60
2023/09/02 01:42:17;;;;;;;;;;;;;;;20.69;95.64;100000.97;4994335;28;892;-60
2023/09/02 01:44:44;;;;;;;;;;;;;;;20.70;95.20;100005.38;4994900;28;876;-60
2023/09/02 01:47:12;;;;;;;;;;;;;;;20.71;95.11;99998.47;4994465;28;892;-60
2023/09/02 01:49:39;;;;;;;;;;;;;;;20.65;95.51;99994.72;4994696;28;871;-60
2023/09/02 01:52:07;;;;;;;;;;;;;;;20.62;95.56;99988.03;4994399;28;875;-60
2023/09/02 01:54:35;;;;;;;;;;;;;;;20.62;95.40;100004.88;4994365;28;883;-60
2023/09/02 01:57:02;;;;;;;;;;;;;;;20.58;95.43;100002.22;4994366;28;903;-60
2023/09/02 01:59:30;;;;;;;;;;;;;;;20.55;95.70;99997.53;4994202;28;1949;-60
2023/09/02 02:01:57;;;;;;;;;;;;;;;20.54;95.70;99989.56;4994149;28;892;-60
2023/09/02 02:04:42;;;;;;;;;;;;;;;20.52;95.48;99990.00;4994349;28;832;-60
2023/09/02 02:07:16;;;;;;;;;;;;;;;20.50;95.45;99986.88;4994292;28;832;-60
2023/09/02 02:09:46;;;;;;;;;;;;;;;20.49;95.12;99995.78;4994321;28;879;-60
2023/09/02 02:12:13;;;;;;;;;;;;;;;20.46;95.11;99994.72;4976707;28;1363;-60
2023/09/02 02:14:40;;;;;;;;;;;;;;;20.46;94.65;99991.91;4976746;28;911;-60
2023/09/02 02:17:07;;;;;;;;;;;;;;;20.43;94.60;99990.00;4993949;28;891;-60
2023/09/02 02:19:34;;;;;;;;;;;;;;;20.37;94.92;99991.88;4994037;28;1890;-60
2023/09/02 02:22:01;;;;;;;;;;;;;;;20.34;94.94;99990.00;4993911;28;828;-60
2023/09/02 02:24:28;;;;;;;;;;;;;;;20.35;94.31;99988.75;4994033;28;1025;-60
2023/09/02 02:26:56;;;;;;;;;;;;;;;20.35;94.01;99994.38;4993606;28;1218;-60
2023/09/02 02:29:23;;;;;;;;;;;;;;;20.31;94.00;99993.72;4993799;28;938;-59
2023/09/02 02:31:50;;;;;;;;;;;;;;;20.33;93.44;99989.22;4993683;28;821;-60
2023/09/02 02:34:17;;;;;;;;;;;;;;;20.38;92.95;99993.44;4993871;28;845;-60
2023/09/02 02:36:44;;;;;;;;;;;;;;;20.35;93.15;99997.16;4993561;28;895;-60
2023/09/02 02:39:11;;;;;;;;;;;;;;;20.26;93.87;99986.72;4993432;28;1927;-60
2023/09/02 02:41:38;;;;;;;;;;;;;;;20.19;94.57;99992.63;4993512;28;820;-60
2023/09/02 02:44:05;;;;;;;;;;;;;;;20.16;94.68;99990.75;4993649;28;842;-60
2023/09/02 02:46:33;;;;;;;;;;;;;;;20.21;93.61;99986.56;4993346;28;946;-60
2023/09/02 02:49:00;;;;;;;;;;;;;;;20.21;93.79;99995.75;4993461;28;896;-60
2023/09/02 02:51:27;;;;;;;;;;;;;;;20.16;93.89;99988.72;4993231;28;983;-60
2023/09/02 02:53:54;;;;;;;;;;;;;;;20.15;93.69;99989.97;4993002;28;866;-60
2023/09/02 02:56:22;;;;;;;;;;;;;;;20.17;93.11;99995.91;4992910;28;836;-60
2023/09/02 02:58:49;;;;;;;;;;;;;;;20.21;92.04;100004.19;4993136;28;916;-60
2023/09/02 03:01:17;;;;;;;;;;;;;;;20.20;92.18;99994.19;4993081;28;1874;-60
2023/09/02 03:03:44;;;;;;;;;;;;;;;20.17;91.70;99997.94;4993091;28;891;-60
2023/09/02 03:06:18;;;;;;;;;;;;;;;20.19;91.04;99999.03;4993198;28;852;-60
2023/09/02 03:08:45;;;;;;;;;;;;;;;20.25;90.21;99999.19;4993006;28;876;-60
2023/09/02 03:11:12;;;;;;;;;;;;;;;20.27;89.71;100001.50;4993083;28;872;-60
2023/09/02 03:13:39;;;;;;;;;;;;;;;20.32;88.85;100006.53;4992825;28;935;-60
2023/09/02 03:16:06;;;;;;;;;;;;;;;20.28;88.87;100003.09;4992927;28;864;-60
2023/09/02 03:18:33;;;;;;;;;;;;;;;20.28;88.69;100005.91;4993053;28;879;-60
2023/09/02 03:21:06;;;;;;;;;;;;;;;20.35;87.54;100006.38;4992873;28;2020;-60
2023/09/02 03:23:34;;;;;;;;;;;;;;;20.38;87.42;100018.72;4992781;28;1335;-60
2023/09/02 03:26:11;;;;;;;;;;;;;;;20.42;86.64;100010.13;4992682;28;1296;-60
2023/09/02 03:28:39;;;;;;;;;;;;;;;20.50;85.61;100008.56;4992615;28;936;-60
2023/09/02 03:31:05;;;;;;;;;;;;;;;20.48;86.02;100017.47;4992898;28;963;-60
2023/09/02 03:33:33;;;;;;;;;;;;;;;20.51;85.25;100022.16;4992640;28;929;-60
2023/09/02 03:36:01;;;;;;;;;;;;;;;20.51;85.52;100015.75;4992694;28;812;-60
2023/09/02 03:38:28;;;;;;;;;;;;;;;20.51;85.51;100019.34;4992652;28;833;-60
2023/09/02 03:40:55;;;;;;;;;;;;;;;20.58;84.37;100023.91;4992367;28;1973;-60
2023/09/02 03:43:22;;;;;;;;;;;;;;;20.62;83.78;100024.53;4992769;28;978;-60
2023/09/02 03:45:49;;;;;;;;;;;;;;;20.67;83.21;100018.28;4992496;28;867;-60
2023/09/02 03:48:19;;;;;;;;;;;;;;;20.73;82.55;100027.66;4992535;28;820;-59
2023/09/02 03:51:01;;;;;;;;;;;;;;;20.76;82.04;100029.53;4992407;28;836;-60
2023/09/02 03:53:28;;;;;;;;;;;;;;;20.77;81.68;100022.66;4992564;28;872;-60
2023/09/02 03:55:56;;;;;;;;;;;;;;;20.79;81.74;100025.78;4974915;28;1619;-60
2023/09/02 03:58:23;;;;;;;;;;;;;;;20.82;81.14;100024.06;4992339;28;927;-60
2023/09/02 04:00:50;;;;;;;;;;;;;;;20.80;81.13;100030.19;4992232;28;1882;-60
2023/09/02 04:03:19;;;;;;;;;;;;;;;20.85;80.57;100025.19;4992274;28;1005;-60
2023/09/02 04:05:46;;;;;;;;;;;;;;;20.89;80.11;100025.78;4993005;28;841;-60
2023/09/02 04:08:17;;;;;;;;;;;;;;;20.95;79.56;100027.53;4996390;28;904;-60
2023/09/02 04:10:45;;;;;;;;;;;;;;;21.00;79.13;100034.53;4996752;28;907;-59
2023/09/02 04:13:11;;;;;;;;;;;;;;;21.06;78.63;100024.22;4996307;28;833;-60
2023/09/02 04:15:39;;;;;;;;;;;;;;;21.12;78.08;100029.97;4996279;28;887;-59
2023/09/02 04:18:06;;;;;;;;;;;;;;;21.16;77.53;100033.41;4996137;28;856;-60
2023/09/02 04:20:35;;;;;;;;;;;;;;;21.21;77.60;100033.56;4996081;28;1882;-60
2023/09/02 04:23:02;;;;;;;;;;;;;;;21.25;77.26;100032.63;4995939;28;1269;-60
2023/09/02 04:25:29;;;;;;;;;;;;;;;21.29;77.17;100031.22;4996144;28;1234;-60
2023/09/02 04:27:57;;;;;;;;;;;;;;;21.33;77.29;100039.50;4996072;28;1320;-60
2023/09/02 04:30:24;;;;;;;;;;;;;;;21.37;77.12;100038.06;4996273;28;821;-60
2023/09/02 04:32:51;;;;;;;;;;;;;;;21.40;76.63;100039.94;4996173;28;868;-59
2023/09/02 04:35:18;;;;;;;;;;;;;;;21.45;76.61;100040.59;4996121;28;860;-59
2023/09/02 04:37:45;;;;;;;;;;;;;;;21.49;76.81;100044.81;4996125;28;860;-59
2023/09/02 04:40:13;;;;;;;;;;;;;;;21.52;76.58;100048.69;4995767;28;1914;-59
2023/09/02 04:42:41;;;;;;;;;;;;;;;21.57;76.40;100048.84;4995851;28;913;-60
2023/09/02 04:45:09;;;;;;;;;;;;;;;21.61;76.40;100048.66;4995568;28;975;-60
2023/09/02 04:47:35;;;;;;;;;;;;;;;21.67;76.03;100043.19;4995694;28;825;-60
2023/09/02 04:50:02;;;;;;;;;;;;;;;21.72;76.07;100046.16;4995580;28;879;-60
2023/09/02 04:52:30;;;;;;;;;;;;;;;21.78;75.72;100047.03;4995688;28;872;-60
2023/09/02 04:54:57;;;;;;;;;;;;;;;21.91;75.20;100048.88;4995701;28;916;-59
2023/09/02 04:57:24;;;;;;;;;;;;;;;22.01;74.16;100048.38;4995464;28;915;-60
2023/09/02 04:59:51;;;;;;;;;;;;;;;22.11;73.74;100046.28;4995322;28;1953;-60
2023/09/02 05:02:18;;;;;;;;;;;;;;;22.20;73.49;100048.28;4995470;28;1177;-59
2023/09/02 05:04:45;;;;;;;;;;;;;;;22.26;73.08;100048.44;4995432;28;840;-59
2023/09/02 05:07:12;;;;;;;;;;;;;;;22.36;72.85;100058.38;4995496;28;830;-60
2023/09/02 05:09:39;;;;;;;;;;;;;;;22.51;71.89;100045.16;4995437;28;856;-60
2023/09/02 05:12:07;;;;;;;;;;;;;;;22.77;70.12;100045.44;4995227;28;843;-59
2023/09/02 05:14:34;;;;;;;;;;;;;;;23.03;67.91;100039.31;4995279;28;876;-60
2023/09/02 05:17:02;;;;;;;;;;;;;;;23.23;67.12;100038.66;4994745;28;960;-60
2023/09/02 05:19:29;;;;;;;;;;;;;;;23.25;66.61;100038.94;4994837;28;1886;-60
2023/09/02 05:21:57;;;;;;;;;;;;;;;23.26;66.71;100039.72;4994904;28;1234;-60
2023/09/02 05:24:24;;;;;;;;;;;;;;;23.31;66.68;100045.47;4995348;28;902;-60
2023/09/02 05:26:51;;;;;;;;;;;;;;;23.36;66.14;100039.13;4994702;28;1343;-60
2023/09/02 05:29:18;;;;;;;;;;;;;;;23.40;65.96;100031.25;4994870;28;880;-60
2023/09/02 05:31:45;;;;;;;;;;;;;;;23.49;65.68;100024.75;4994916;28;876;-60
2023/09/02 05:34:12;;;;;;;;;;;;;;;23.56;65.28;100024.38;4994646;28;888;-60
2023/09/02 05:36:40;;;;;;;;;;;;;;;23.67;64.40;100032.25;4994860;28;821;-61
2023/09/02 05:39:07;;;;;;;;;;;;;;;23.73;64.91;100033.13;4994733;28;868;-60
2023/09/02 05:41:34;;;;;;;;;;;;;;;23.88;64.99;100027.47;4994789;28;1964;-60
2023/09/02 05:44:01;;;;;;;;;;;;;;;24.09;64.17;100024.69;4994706;28;824;-60
2023/09/02 05:46:29;;;;;;;;;;;;;;;24.32;63.66;100034.25;4994486;28;848;-60
2023/09/02 05:48:56;;;;;;;;;;;;;;;24.72;61.99;100032.75;4994526;28;904;-60
2023/09/02 05:51:25;;;;;;;;;;;;;;;24.93;60.11;100030.69;4994306;28;857;-60
2023/09/02 05:53:52;;;;;;;;;;;;;;;24.99;59.92;100035.13;4994556;28;808;-60
2023/09/02 05:56:18;;;;;;;;;;;;;;;25.18;59.57;100041.25;4994211;28;962;-60
2023/09/02 05:58:46;;;;;;;;;;;;;;;25.25;58.59;100034.41;4994368;28;825;-60
2023/09/02 06:01:13;;;;;;;;;;;;;;;25.52;57.76;100043.63;4994264;28;1882;-60
2023/09/02 06:03:40;;;;;;;;;;;;;;;25.99;56.43;100049.94;4994295;28;868;-59
2023/09/02 06:06:11;;;;;;;;;;;;;;;26.46;54.30;100047.69;4977013;28;942;-60
2023/09/02 06:08:39;;;;;;;;;;;;;;;27.02;52.34;100045.09;4994069;28;927;-60
2023/09/02 06:11:06;;;;;;;;;;;;;;;27.17;51.07;100052.59;4994038;28;924;-60
2023/09/02 06:13:37;;;;;;;;;;;;;;;27.31;51.23;100054.44;4994357;28;1195;-60
2023/09/02 06:16:05;;;;;;;;;;;;;;;27.44;49.87;100063.25;4994332;28;845;-60
2023/09/02 06:18:33;;;;;;;;;;;;;;;27.69;49.88;100060.69;4993958;28;1284;-60
2023/09/02 06:21:09;;;;;;;;;;;;;;;28.06;48.17;100066.13;4993963;28;1882;-60
2023/09/02 06:23:36;;;;;;;;;;;;;;;28.30;47.58;100065.56;4993662;28;1153;-60
2023/09/02 06:26:04;;;;;;;;;;;;;;;28.44;47.19;100065.78;4993819;28;1352;-60
2023/09/02 06:28:32;;;;;;;;;;;;;;;28.15;48.34;100064.31;4993656;28;944;-60
2023/09/02 06:31:04;;;;;;;;;;;;;;;27.65;48.23;100078.00;4992791;28;860;-60
2023/09/02 06:33:31;;;;;;;;;;;;;;;27.12;50.76;100081.72;4994028;28;880;-60
2023/09/02 06:35:59;;;;;;;;;;;;;;;26.90;50.63;100071.84;4993626;28;888;-60
2023/09/02 06:38:26;;;;;;;;;;;;;;;26.62;52.06;100080.25;4993599;28;821;-59
2023/09/02 06:40:52;;;;;;;;;;;;;;;26.48;52.56;100079.91;4993646;28;1971;-60
2023/09/02 06:43:19;;;;;;;;;;;;;;;26.28;53.46;100075.13;4993493;28;935;-60
2023/09/02 06:45:47;;;;;;;;;;;;;;;26.23;54.43;100073.03;4976078;28;888;-60
2023/09/02 06:48:13;;;;;;;;;;;;;;;26.22;54.17;100080.00;4993447;28;896;-60
2023/09/02 06:50:44;;;;;;;;;;;;;;;26.38;54.48;100083.44;4993305;28;852;-61
2023/09/02 06:53:11;;;;;;;;;;;;;;;26.70;53.77;100083.38;4993597;28;860;-60
2023/09/02 06:55:38;;;;;;;;;;;;;;;26.87;52.71;100081.38;4993888;28;863;-60
2023/09/02 06:58:05;;;;;;;;;;;;;;;26.96;52.78;100078.31;4993365;28;833;-61
2023/09/02 07:00:34;;;;;;;;;;;;;;;27.17;52.54;100078.13;4993578;28;1882;-60
2023/09/02 07:03:01;;;;;;;;;;;;;;;27.42;51.52;100079.25;4976057;28;851;-60
2023/09/02 07:05:28;;;;;;;;;;;;;;;27.66;50.61;100075.91;4993363;28;899;-60
2023/09/02 07:07:55;;;;;;;;;;;;;;;28.00;48.76;100075.94;4993248;28;1003;-60
2023/09/02 07:10:21;;;;;;;;;;;;;;;28.50;48.23;100077.94;4993089;28;912;-60
2023/09/02 07:12:52;;;;;;;;;;;;;;;28.92;45.65;100075.97;4993221;28;821;-60
2023/09/02 07:15:19;;;;;;;;;;;;;;;29.28;44.98;100079.69;4993075;28;908;-60
2023/09/02 07:17:46;;;;;;;;;;;;;;;29.54;44.47;100072.00;4992768;28;900;-60
2023/09/02 07:20:13;;;;;;;;;;;;;;;29.57;43.95;100083.09;4992831;28;1886;-60
2023/09/02 07:22:39;;;;;;;;;;;;;;;29.53;43.45;100074.06;4992736;28;939;-60
2023/09/02 07:25:08;;;;;;;;;;;;;;;29.41;43.66;100081.94;4992811;28;1396;-60
2023/09/02 07:27:35;;;;;;;;;;;;;;;29.35;43.64;100078.34;4992806;28;871;-60
2023/09/02 07:30:02;;;;;;;;;;;;;;;29.23;44.00;100080.50;4992634;28;900;-59
2023/09/02 07:32:29;;;;;;;;;;;;;;;29.06;43.82;100080.56;4992677;28;862;-60
2023/09/02 07:34:54;;;;;;;;;;;;;;;28.94;44.53;100081.16;4992707;28;872;-60
2023/09/02 07:37:21;;;;;;;;;;;;;;;28.86;44.87;100075.97;4992680;28;840;-60
2023/09/02 07:39:48;;;;;;;;;;;;;;;28.96;44.77;100076.47;4992675;28;1966;-61
2023/09/02 07:42:14;;;;;;;;;;;;;;;29.25;43.85;100089.28;4992521;28;833;-61
2023/09/02 07:44:41;;;;;;;;;;;;;;;29.50;43.39;100084.44;4992541;28;872;-60
2023/09/02 07:47:07;;;;;;;;;;;;;;;29.38;42.29;100083.00;4975186;28;1337;-60
2023/09/02 07:49:34;;;;;;;;;;;;;;;29.50;41.97;100086.53;4992421;28;848;-61
2023/09/02 07:52:00;;;;;;;;;;;;;;;29.66;39.90;100087.69;4992739;28;907;-59
2023/09/02 07:54:26;;;;;;;;;;;;;;;29.75;39.61;100084.56;4992577;28;879;-61
2023/09/02 07:56:52;;;;;;;;;;;;;;;29.83;38.18;100093.28;4992605;28;915;-61
2023/09/02 07:59:20;;;;;;;;;;;;;;;29.80;38.20;100097.22;4992318;28;1973;-60
2023/09/02 08:01:48;;;;;;;;;;;;;;;29.95;38.42;100091.13;4992360;28;1174;-61
2023/09/02 08:04:15;;;;;;;;;;;;;;;30.12;37.25;100086.03;4992567;28;868;-62
2023/09/02 08:06:42;;;;;;;;;;;;;;;30.35;36.51;100086.63;4992599;28;860;-62
2023/09/02 08:09:09;;;;;;;;;;;;;;;30.76;36.12;100082.78;4992447;28;947;-62
2023/09/02 08:11:36;;;;;;;;;;;;;;;31.31;35.29;100094.03;4992322;28;959;-62
2023/09/02 08:14:08;;;;;;;;;;;;;;;31.70;34.84;100093.44;4992629;28;1212;-63
2023/09/02 08:16:36;;;;;;;;;;;;;;;32.39;34.06;100093.84;4992211;28;880;-63
2023/09/02 08:19:02;;;;;;;;;;;;;;;33.03;33.31;100084.25;4974771;28;853;-62
2023/09/02 08:21:29;;;;;;;;;;;;;;;33.06;32.87;100096.66;4992135;28;1977;-63
2023/09/02 08:23:55;;;;;;;;;;;;;;;32.75;32.10;100093.41;4992191;28;985;-63
2023/09/02 08:26:22;;;;;;;;;;;;;;;32.99;32.36;100085.88;4992013;28;1300;-63
2023/09/02 08:28:49;;;;;;;;;;;;;;;32.73;32.13;100090.31;4992112;28;889;-62
2023/09/02 08:31:18;;;;;;;;;;;;;;;32.34;31.69;100091.84;4992132;28;898;-62
2023/09/02 08:33:45;;;;;;;;;;;;;;;31.93;32.11;100101.66;4992128;28;886;-62
2023/09/02 08:36:16;;;;;;;;;;;;;;;31.93;32.76;100099.56;4992105;28;904;-63
2023/09/02 08:38:44;;;;;;;;;;;;;;;32.30;32.16;100086.44;4992026;28;922;-62
2023/09/02 08:41:17;;;;;;;;;;;;;;;32.19;32.33;100094.47;4992010;28;1981;-63
2023/09/02 08:43:44;;;;;;;;;;;;;;;32.34;31.53;100095.47;4991964;28;870;-62
2023/09/02 08:46:14;;;;;;;;;;;;;;;32.49;32.04;100092.06;4992021;28;947;-63
2023/09/02 08:48:47;;;;;;;;;;;;;;;32.59;32.58;100075.28;4974475;28;1342;-62
2023/09/02 08:51:15;;;;;;;;;;;;;;;32.13;31.97;100080.28;4991990;28;866;-63
2023/09/02 08:53:42;;;;;;;;;;;;;;;32.43;32.94;100088.53;4993959;28;832;-63
2023/09/02 08:56:10;;;;;;;;;;;;;;;32.59;31.80;100085.94;4995618;28;825;-63
2023/09/02 08:58:39;;;;;;;;;;;;;;;32.56;32.19;100082.06;4995526;28;871;-61
2023/09/02 09:01:06;;;;;;;;;;;;;;;32.06;33.71;100087.41;4977880;28;1945;-61
2023/09/02 09:03:33;;;;;;;;;;;;;;;32.20;32.84;100088.22;4995418;28;816;-62
2023/09/02 09:06:02;;;;;;;;;;;;;;;32.49;32.52;100071.28;4995320;28;915;-62
2023/09/02 09:08:30;;;;;;;;;;;;;;;32.78;34.06;100078.00;4995771;28;939;-62
2023/09/02 09:10:58;;;;;;;;;;;;;;;32.82;31.62;100078.44;4995177;28;891;-62
2023/09/02 09:13:25;;;;;;;;;;;;;;;32.55;32.36;100081.31;4995611;28;825;-62
2023/09/02 09:15:54;;;;;;;;;;;;;;;32.80;31.94;100071.75;4977784;28;848;-63
2023/09/02 09:18:21;;;;;;;;;;;;;;;32.97;32.44;100060.69;4994984;28;897;-63
2023/09/02 09:20:48;;;;;;;;;;;;;;;33.32;32.84;100075.81;4994935;28;1883;-63
2023/09/02 09:23:15;;;;;;;;;;;;;;;33.59;31.31;100062.13;4995069;28;828;-63
2023/09/02 09:25:42;;;;;;;;;;;;;;;33.10;31.21;100072.13;4994831;28;1819;-63
2023/09/02 09:28:10;;;;;;;;;;;;;;;32.43;31.15;100082.06;4995049;28;832;-63
2023/09/02 09:30:38;;;;;;;;;;;;;;;31.98;32.40;100069.34;4994741;28;1029;-62
2023/09/02 09:33:05;;;;;;;;;;;;;;;31.97;32.98;100073.53;4994860;28;880;-62
2023/09/02 09:35:33;;;;;;;;;;;;;;;31.91;31.82;100072.84;4994906;28;907;-62
2023/09/02 09:38:00;;;;;;;;;;;;;;;31.79;31.63;100062.91;4994805;28;873;-62
2023/09/02 09:43:30;;;;;;;;;;;;;;;31.59;31.75;100070.78;4994679;28;683;-63
2023/09/02 09:45:57;;;;;;;;;;;;;;;31.54;32.06;100068.78;4994499;28;829;-62
2023/09/02 09:48:24;;;;;;;;;;;;;;;31.68;32.39;100069.59;4994569;28;864;-62
2023/09/02 09:50:51;;;;;;;;;;;;;;;31.82;32.42;100071.16;4994503;28;816;-63
2023/09/02 09:53:17;;;;;;;;;;;;;;;32.21;32.16;100068.97;4994597;28;826;-62
2023/09/02 09:55:45;;;;;;;;;;;;;;;32.47;32.70;100053.91;4994382;28;904;-62
2023/09/02 09:58:12;;;;;;;;;;;;;;;32.30;31.90;100054.22;4994740;28;868;-62
2023/09/02 10:00:39;;;;;;;;;;;;;;;32.16;31.82;100053.47;4976747;28;1899;-62
2023/09/02 10:03:06;;;;;;;;;;;;;;;32.39;32.17;100053.00;4994337;28;887;-62
2023/09/02 10:05:34;;;;;;;;;;;;;;;32.49;32.23;100046.28;4994072;28;916;-62
2023/09/02 10:08:04;;;;;;;;;;;;;;;32.58;32.02;100047.19;4976719;28;1296;-62
2023/09/02 10:10:34;;;;;;;;;;;;;;;32.88;31.79;100055.41;4994503;28;867;-62
2023/09/02 10:13:01;;;;;;;;;;;;;;;33.04;31.89;100042.81;4994049;28;880;-62
2023/09/02 10:15:30;;;;;;;;;;;;;;;33.02;30.87;100038.97;4994065;28;860;-62
2023/09/02 10:17:58;;;;;;;;;;;;;;;32.51;31.13;100042.88;4994170;28;879;-62
2023/09/02 10:20:31;;;;;;;;;;;;;;;31.95;31.87;100041.84;4994310;28;1875;-62
2023/09/02 10:23:19;;;;;;;;;;;;;;;32.23;31.83;100040.59;4993899;28;876;-63
2023/09/02 10:25:54;;;;;;;;;;;;;;;32.04;32.32;100038.59;4993542;28;1891;-62
2023/09/02 10:28:40;;;;;;;;;;;;;;;31.91;32.12;100042.16;4993871;28;896;-63
2023/09/02 10:31:12;;;;;;;;;;;;;;;31.69;32.41;100040.47;4994024;28;845;-63
2023/09/02 10:33:45;;;;;;;;;;;;;;;31.60;33.19;100045.81;4993773;28;809;-62
2023/09/02 10:36:16;;;;;;;;;;;;;;;32.05;31.43;100047.94;4993732;28;935;-62
2023/09/02 10:38:47;;;;;;;;;;;;;;;32.61;30.15;100031.81;4993641;28;919;-63
2023/09/02 10:41:16;;;;;;;;;;;;;;;32.80;30.12;100041.03;4993687;28;1914;-63
2023/09/02 10:43:43;;;;;;;;;;;;;;;32.34;30.35;100046.84;4993594;28;856;-63
2023/09/02 10:46:11;;;;;;;;;;;;;;;32.54;29.90;100041.84;4993391;28;828;-63
2023/09/02 10:48:40;;;;;;;;;;;;;;;33.15;29.38;100051.19;4993465;28;821;-63
2023/09/02 10:51:08;;;;;;;;;;;;;;;33.23;28.70;100041.91;4993581;28;824;-62
2023/09/02 10:53:50;;;;;;;;;;;;;;;33.33;28.17;100032.28;4993446;28;813;-62
2023/09/02 10:56:33;;;;;;;;;;;;;;;33.64;27.39;100034.69;4993357;28;840;-63
2023/09/02 10:59:06;;;;;;;;;;;;;;;33.93;26.93;100015.44;4993113;28;932;-63
2023/09/02 11:01:42;;;;;;;;;;;;;;;34.20;26.59;100021.00;4993181;28;1882;-63
2023/09/02 11:04:09;;;;;;;;;;;;;;;33.68;26.85;100017.94;4993270;28;903;-63
2023/09/02 11:06:36;;;;;;;;;;;;;;;32.60;27.85;100028.16;4993274;28;883;-63
2023/09/02 11:09:02;;;;;;;;;;;;;;;31.88;28.83;100025.38;4993545;28;1309;-62
2023/09/02 11:11:47;;;;;;;;;;;;;;;32.39;29.07;100010.91;4993370;28;808;-62
2023/09/02 11:14:17;;;;;;;;;;;;;;;32.19;28.25;100026.63;4992931;28;892;-62
2023/09/02 11:17:05;;;;;;;;;;;;;;;31.43;28.89;100018.31;4992496;28;1204;-62
2023/09/02 11:19:50;;;;;;;;;;;;;;;30.98;29.56;100018.97;4992869;28;1887;-62
2023/09/02 11:22:37;;;;;;;;;;;;;;;31.82;29.16;100005.44;4993187;28;914;-62
2023/09/02 11:25:05;;;;;;;;;;;;;;;32.86;27.21;99997.94;4992631;28;1619;-63
2023/09/02 11:27:44;;;;;;;;;;;;;;;33.67;26.63;100008.56;4992812;28;875;-63
2023/09/02 11:30:11;;;;;;;;;;;;;;;33.83;25.72;100005.81;4992939;28;877;-62
2023/09/02 11:32:45;;;;;;;;;;;;;;;33.53;25.96;100004.22;4992664;28;880;-62
2023/09/02 11:35:12;;;;;;;;;;;;;;;33.31;26.66;100008.41;4992650;28;907;-62
2023/09/02 11:37:38;;;;;;;;;;;;;;;32.27;27.17;100015.31;4992873;28;864;-62
2023/09/02 11:40:15;;;;;;;;;;;;;;;31.47;28.46;100009.41;4992423;28;1910;-62
2023/09/02 11:42:54;;;;;;;;;;;;;;;31.01;29.17;100008.56;4992584;28;1192;-63
2023/09/02 11:45:21;;;;;;;;;;;;;;;30.85;29.35;99996.78;4992480;28;813;-63
2023/09/02 11:47:49;;;;;;;;;;;;;;;31.06;29.77;99988.47;4992732;28;871;-63
2023/09/02 11:50:18;;;;;;;;;;;;;;;32.23;29.04;99989.13;4992443;28;887;-63
2023/09/02 11:52:45;;;;;;;;;;;;;;;33.48;28.18;99974.38;4992489;28;880;-62
2023/09/02 11:55:13;;;;;;;;;;;;;;;33.06;28.05;99980.06;4992309;28;929;-63
2023/09/02 11:57:39;;;;;;;;;;;;;;;32.20;28.36;99987.34;4992379;28;824;-63
2023/09/02 12:00:10;;;;;;;;;;;;;;;32.10;28.90;99990.66;4992303;28;1962;-63
2023/09/02 12:02:37;;;;;;;;;;;;;;;33.19;27.69;99984.22;4975207;28;1587;-63
2023/09/02 12:05:04;;;;;;;;;;;;;;;33.93;27.08;99981.81;4992589;28;813;-63
2023/09/02 12:07:34;;;;;;;;;;;;;;;34.33;25.64;99977.84;4992449;28;915;-63
2023/09/02 12:10:13;;;;;;;;;;;;;;;33.76;26.17;99970.81;4992416;28;873;-63
2023/09/02 12:12:41;;;;;;;;;;;;;;;34.04;25.17;99969.25;4992278;28;952;-63
2023/09/02 12:15:12;;;;;;;;;;;;;;;34.38;24.78;99956.84;4992406;28;884;-63
2023/09/02 12:17:40;;;;;;;;;;;;;;;34.74;25.22;99964.69;4992526;28;868;-63
2023/09/02 12:20:11;;;;;;;;;;;;;;;35.08;24.54;99972.19;4992373;28;1882;-63
2023/09/02 12:22:38;;;;;;;;;;;;;;;35.42;24.27;99971.13;4992105;28;978;-63
2023/09/02 12:25:14;;;;;;;;;;;;;;;35.91;23.26;99952.72;4992085;28;1171;-63
2023/09/02 12:27:41;;;;;;;;;;;;;;;36.64;22.90;99952.91;4994292;28;833;-63
2023/09/02 12:30:09;;;;;;;;;;;;;;;37.02;22.87;99962.66;4996135;28;896;-62
2023/09/02 12:32:37;;;;;;;;;;;;;;;36.87;21.78;99960.66;4996050;28;880;-63
2023/09/02 12:35:09;;;;;;;;;;;;;;;37.62;21.37;99948.41;4995861;28;896;-62
2023/09/02 12:37:36;;;;;;;;;;;;;;;38.72;21.47;99948.16;4996053;28;943;-62
2023/09/02 12:40:10;;;;;;;;;;;;;;;38.40;20.81;99958.56;4996136;28;1906;-62
2023/09/02 12:42:37;;;;;;;;;;;;;;;37.92;20.86;99950.25;4995655;28;888;-62
2023/09/02 12:45:04;;;;;;;;;;;;;;;36.35;22.00;99966.81;4995810;28;864;-63
2023/09/02 12:47:31;;;;;;;;;;;;;;;35.08;22.86;99967.25;4995739;28;915;-63
2023/09/02 12:50:03;;;;;;;;;;;;;;;34.44;23.49;99957.47;4995729;28;852;-63
2023/09/02 12:52:31;;;;;;;;;;;;;;;35.47;23.28;99961.56;4995597;28;859;-63
2023/09/02 12:54:58;;;;;;;;;;;;;;;36.58;22.33;99946.59;4995562;28;832;-63
2023/09/02 12:57:26;;;;;;;;;;;;;;;37.25;21.53;99948.88;4995705;28;865;-63
2023/09/02 12:59:53;;;;;;;;;;;;;;;36.62;21.66;99949.06;4995405;28;1969;-64
2023/09/02 13:02:23;;;;;;;;;;;;;;;35.79;22.14;99949.50;4995462;28;892;-63
2023/09/02 13:04:50;;;;;;;;;;;;;;;34.44;23.26;99953.81;4995348;28;872;-63
2023/09/02 13:07:19;;;;;;;;;;;;;;;33.50;24.25;99953.75;4995426;28;871;-63
2023/09/02 13:09:44;;;;;;;;;;;;;;;33.02;25.31;99951.00;4995230;28;862;-63
2023/09/02 13:12:12;;;;;;;;;;;;;;;32.60;25.69;99950.16;4995418;28;853;-63
2023/09/02 13:14:41;;;;;;;;;;;;;;;32.27;26.02;99952.41;4995210;28;852;-63
2023/09/02 13:17:11;;;;;;;;;;;;;;;33.30;25.72;99941.75;4995359;28;892;-63
2023/09/02 13:19:38;;;;;;;;;;;;;;;34.27;24.34;99952.22;4995172;28;1949;-63
2023/09/02 13:22:05;;;;;;;;;;;;;;;34.87;24.06;99952.28;4977772;28;1397;-63
2023/09/02 13:24:31;;;;;;;;;;;;;;;33.96;24.45;99945.50;4995120;28;1037;-63
2023/09/02 13:26:59;;;;;;;;;;;;;;;33.05;26.08;99949.91;4994663;28;1305;-63
2023/09/02 13:29:28;;;;;;;;;;;;;;;32.06;26.82;99949.44;4995208;28;943;-63
2023/09/02 13:32:06;;;;;;;;;;;;;;;31.45;27.46;99957.78;4994875;28;817;-63
2023/09/02 13:34:34;;;;;;;;;;;;;;;31.15;32.23;99950.22;4994816;28;861;-63
2023/09/02 13:37:20;;;;;;;;;;;;;;;30.80;37.63;99959.81;4994786;28;904;-62